Time;durP1;ratioP1;P1;durP2;ratioP2;P2;SDS_P1;SDS_P2;PMS_P1;PMS_P2;Temp;Humidity;BMP_temperature;BMP_pressure;BME280_temperature;BME280_humidity;BME280_pressure;Samples;Min_cycle;Max_cycle;Signal;HPM_P1;HPM_P2
2021/08/21 00:00:59;;;;;;;14.37;12.87;;;;;;;;;;5033578;28;20445;-54
2021/08/21 00:03:27;;;;;;;14.57;13.07;;;;;;;;;;5033339;28;20465;-55
2021/08/21 00:05:55;;;;;;;13.30;11.70;;;;;;;;;;5034145;28;20507;-55
2021/08/21 00:08:22;;;;;;;15.03;12.40;;;;;;;;;;5033281;28;20511;-54
2021/08/21 00:10:49;;;;;;;12.93;11.67;;;;;;;;;;5032969;28;20449;-55
2021/08/21 00:13:16;;;;;;;14.63;13.33;;;;;;;;;;5033064;28;20544;-56
2021/08/21 00:15:44;;;;;;;13.90;12.60;;;;;;;;;;5033279;28;20857;-55
2021/08/21 00:18:11;;;;;;;13.90;12.40;;;;;;;;;;5032900;28;20449;-55
2021/08/21 00:20:39;;;;;;;17.20;12.20;;;;;;;;;;5033195;28;20499;-55
2021/08/21 00:23:07;;;;;;;14.00;12.70;;;;;;;;;;5033111;28;20969;-55
2021/08/21 00:25:34;;;;;;;15.07;13.50;;;;;;;;;;5037376;28;20444;-55
2021/08/21 00:28:02;;;;;;;14.73;13.27;;;;;;;;;;5037297;28;20461;-55
2021/08/21 00:30:29;;;;;;;13.60;12.30;;;;;;;;;;5037113;28;20491;-55
2021/08/21 00:32:56;;;;;;;14.50;13.10;;;;;;;;;;5038317;28;20653;-55
2021/08/21 00:35:24;;;;;;;17.20;13.40;;;;;;;;;;5036883;28;20514;-55
2021/08/21 00:37:52;;;;;;;18.70;15.10;;;;;;;;;;5036692;28;20888;-55
2021/08/21 00:40:19;;;;;;;16.07;14.57;;;;;;;;;;5036994;28;20448;-55
2021/08/21 00:42:47;;;;;;;16.20;14.60;;;;;;;;;;5036600;28;20472;-55
2021/08/21 00:45:14;;;;;;;15.87;14.17;;;;;;;;;;5036611;28;20453;-55
2021/08/21 00:47:41;;;;;;;16.27;14.57;;;;;;;;;;5037666;28;20449;-54
2021/08/21 00:50:09;;;;;;;15.60;14.10;;;;;;;;;;5036845;28;20441;-54
2021/08/21 00:52:37;;;;;;;15.60;14.10;;;;;;;;;;5036377;28;20934;-55
2021/08/21 00:55:07;;;;;;;15.83;14.07;;;;;;;;;;5036796;28;20473;-54
2021/08/21 00:57:34;;;;;;;17.03;14.63;;;;;;;;;;5036835;28;20846;-55
2021/08/21 01:00:01;;;;;;;14.60;13.10;;;;;;;;;;5036409;28;20433;-55
2021/08/21 01:02:31;;;;;;;14.80;13.30;;;;;;;;;;5036393;28;20455;-56
2021/08/21 01:04:59;;;;;;;14.73;12.70;;;;;;;;;;5036757;28;21067;-55
2021/08/21 01:07:27;;;;;;;14.70;13.20;;;;;;;;;;5036459;28;20506;-55
2021/08/21 01:09:55;;;;;;;16.60;14.90;;;;;;;;;;5036618;28;20441;-55
2021/08/21 01:12:23;;;;;;;19.47;15.90;;;;;;;;;;5036723;28;20519;-56
2021/08/21 01:14:51;;;;;;;16.17;14.50;;;;;;;;;;5036173;28;20539;-55
2021/08/21 01:17:19;;;;;;;15.07;13.57;;;;;;;;;;5036423;28;20449;-55
2021/08/21 01:19:48;;;;;;;16.50;14.00;;;;;;;;;;5036371;28;20444;-55
2021/08/21 01:22:16;;;;;;;15.10;13.60;;;;;;;;;;5036245;28;20449;-55
2021/08/21 01:24:43;;;;;;;16.20;14.50;;;;;;;;;;5036133;28;20511;-56
2021/08/21 01:27:17;;;;;;;16.93;15.20;;;;;;;;;;5036168;28;20452;-56
2021/08/21 01:29:44;;;;;;;16.83;15.13;;;;;;;;;;5036161;28;20429;-56
2021/08/21 01:32:11;;;;;;;16.60;15.00;;;;;;;;;;5036093;28;20937;-55
2021/08/21 01:34:39;;;;;;;16.97;15.20;;;;;;;;;;5035919;28;20500;-55
2021/08/21 01:37:06;;;;;;;18.03;15.37;;;;;;;;;;5037500;28;20453;-55
2021/08/21 01:39:33;;;;;;;17.13;15.30;;;;;;;;;;5035743;28;21000;-55
2021/08/21 01:42:01;;;;;;;17.63;15.87;;;;;;;;;;5035968;28;20445;-56
2021/08/21 01:44:30;;;;;;;18.37;15.43;;;;;;;;;;5035729;28;20569;-55
2021/08/21 01:46:57;;;;;;;16.00;14.50;;;;;;;;;;5035504;28;20991;-55
2021/08/21 01:49:26;;;;;;;16.93;15.23;;;;;;;;;;5035710;28;20495;-55
2021/08/21 01:51:54;;;;;;;18.53;16.63;;;;;;;;;;5035668;28;20448;-55
2021/08/21 01:54:22;;;;;;;16.50;14.73;;;;;;;;;;5035301;28;20981;-55
2021/08/21 01:56:50;;;;;;;19.03;15.40;;;;;;;;;;5035703;28;20874;-55
2021/08/21 01:59:21;;;;;;;17.53;14.80;;;;;;;;;;5035644;28;20874;-55
2021/08/21 02:01:50;;;;;;;17.47;15.57;;;;;;;;;;5035535;28;20449;-55
2021/08/21 02:04:18;;;;;;;17.33;15.40;;;;;;;;;;5035491;28;20461;-55
2021/08/21 02:06:45;;;;;;;16.93;15.20;;;;;;;;;;5035331;28;20445;-55
2021/08/21 02:09:12;;;;;;;16.33;14.60;;;;;;;;;;5035370;28;20441;-54
2021/08/21 02:11:39;;;;;;;16.43;14.73;;;;;;;;;;5035298;28;20441;-54
2021/08/21 02:14:07;;;;;;;15.63;14.13;;;;;;;;;;5034859;28;20477;-56
2021/08/21 02:16:34;;;;;;;18.03;15.97;;;;;;;;;;5035252;28;20445;-55
2021/08/21 02:19:03;;;;;;;16.93;15.10;;;;;;;;;;5034819;28;20449;-56
2021/08/21 02:21:30;;;;;;;18.73;16.73;;;;;;;;;;5035143;28;20862;-55
2021/08/21 02:23:58;;;;;;;18.30;16.17;;;;;;;;;;5035105;28;20465;-56
2021/08/21 02:26:26;;;;;;;17.03;15.33;;;;;;;;;;5035009;28;20477;-56
2021/08/21 02:28:53;;;;;;;18.97;15.10;;;;;;;;;;5035027;28;20455;-56
2021/08/21 02:31:20;;;;;;;16.37;14.63;;;;;;;;;;5034654;28;20937;-56
2021/08/21 02:33:48;;;;;;;15.80;14.17;;;;;;;;;;5034398;28;20492;-55
2021/08/21 02:36:16;;;;;;;16.00;14.30;;;;;;;;;;5034612;28;20905;-55
2021/08/21 02:38:46;;;;;;;14.60;13.10;;;;;;;;;;5034892;28;20790;-55
2021/08/21 02:41:13;;;;;;;16.40;14.70;;;;;;;;;;5034785;28;20445;-55
2021/08/21 02:43:41;;;;;;;15.17;13.67;;;;;;;;;;5034671;28;20470;-55
2021/08/21 02:46:08;;;;;;;14.30;12.83;;;;;;;;;;5034569;28;20495;-55
2021/08/21 02:48:35;;;;;;;18.03;14.17;;;;;;;;;;5033832;28;20495;-55
2021/08/21 02:51:02;;;;;;;14.50;13.10;;;;;;;;;;5034354;28;20441;-55
2021/08/21 02:53:31;;;;;;;14.07;12.67;;;;;;;;;;5034195;28;20484;-55
2021/08/21 02:56:00;;;;;;;14.07;12.67;;;;;;;;;;5034546;28;20441;-55
2021/08/21 02:58:27;;;;;;;14.80;13.27;;;;;;;;;;5034203;28;20445;-55
2021/08/21 03:00:54;;;;;;;13.10;11.90;;;;;;;;;;5034427;28;20448;-55
2021/08/21 03:03:21;;;;;;;14.30;12.90;;;;;;;;;;5034303;28;20473;-55
2021/08/21 03:05:49;;;;;;;14.60;12.97;;;;;;;;;;5033998;28;20453;-55
2021/08/21 03:08:16;;;;;;;13.77;12.37;;;;;;;;;;5034317;28;20444;-55
2021/08/21 03:10:44;;;;;;;14.17;12.67;;;;;;;;;;5034288;28;20449;-55
2021/08/21 03:13:12;;;;;;;14.43;13.03;;;;;;;;;;5033787;28;20464;-56
2021/08/21 03:15:39;;;;;;;14.20;12.70;;;;;;;;;;5034144;28;20488;-55
2021/08/21 03:18:06;;;;;;;14.70;13.20;;;;;;;;;;5034141;28;20458;-55
2021/08/21 03:20:34;;;;;;;15.60;14.07;;;;;;;;;;5033851;28;21000;-55
2021/08/21 03:23:01;;;;;;;14.70;13.30;;;;;;;;;;5033729;28;20832;-55
2021/08/21 03:25:29;;;;;;;14.30;12.87;;;;;;;;;;5034675;28;20441;-55
2021/08/21 03:27:57;;;;;;;15.37;13.77;;;;;;;;;;5033964;28;20491;-55
2021/08/21 03:30:25;;;;;;;17.33;15.33;;;;;;;;;;5033696;28;20452;-55
2021/08/21 03:32:52;;;;;;;15.60;14.00;;;;;;;;;;5033922;28;20476;-56
2021/08/21 03:35:19;;;;;;;15.53;13.97;;;;;;;;;;5033574;28;20567;-55
2021/08/21 03:37:46;;;;;;;14.73;13.23;;;;;;;;;;5033729;28;20449;-55
2021/08/21 03:40:14;;;;;;;16.10;14.40;;;;;;;;;;5033894;28;20503;-55
2021/08/21 03:42:41;;;;;;;17.40;14.40;;;;;;;;;;5033931;28;20499;-55
2021/08/21 03:45:10;;;;;;;15.73;14.00;;;;;;;;;;5034607;28;20926;-57
2021/08/21 03:47:38;;;;;;;16.70;14.90;;;;;;;;;;5035050;28;20445;-57
2021/08/21 03:50:05;;;;;;;17.23;15.40;;;;;;;;;;5033795;28;20520;-56
2021/08/21 03:52:32;;;;;;;18.80;16.60;;;;;;;;;;5033356;28;20453;-56
2021/08/21 03:55:00;;;;;;;18.50;15.40;;;;;;;;;;5033794;28;20526;-56
2021/08/21 03:57:27;;;;;;;17.93;14.70;;;;;;;;;;5033979;28;20519;-56
2021/08/21 03:59:54;;;;;;;21.70;17.33;;;;;;;;;;5033369;28;21001;-56
2021/08/21 04:02:23;;;;;;;17.07;15.20;;;;;;;;;;5034050;28;20491;-56
2021/08/21 04:04:50;;;;;;;18.70;16.60;;;;;;;;;;5034698;28;20457;-56
2021/08/21 04:08:28;;;;;;;21.40;17.50;;;;;;;;;;5092035;27;20550;-54
2021/08/21 04:10:55;;;;;;;18.27;16.20;;;;;;;;;;5091691;28;20508;-54
2021/08/21 04:13:23;;;;;;;18.00;16.03;;;;;;;;;;5090643;28;20519;-54
2021/08/21 04:15:50;;;;;;;17.77;15.90;;;;;;;;;;5091023;28;20438;-56
2021/08/21 04:18:17;;;;;;;16.30;14.67;;;;;;;;;;5090600;28;20446;-54
2021/08/21 04:20:44;;;;;;;18.37;16.47;;;;;;;;;;5090841;28;20500;-54
2021/08/21 04:23:12;;;;;;;18.00;16.10;;;;;;;;;;5090940;28;20478;-55
2021/08/21 04:25:40;;;;;;;17.20;15.40;;;;;;;;;;5090764;28;20938;-54
2021/08/21 04:28:08;;;;;;;16.97;15.33;;;;;;;;;;5090721;28;20880;-55
2021/08/21 04:30:35;;;;;;;17.60;15.80;;;;;;;;;;5090660;28;20438;-54
2021/08/21 04:33:02;;;;;;;16.47;14.93;;;;;;;;;;5090427;28;20507;-54
2021/08/21 04:35:29;;;;;;;16.93;15.23;;;;;;;;;;5090084;28;20926;-55
2021/08/21 04:37:57;;;;;;;17.20;15.27;;;;;;;;;;5090344;28;20499;-54
2021/08/21 04:40:24;;;;;;;17.40;15.20;;;;;;;;;;5090379;28;20446;-55
2021/08/21 04:42:53;;;;;;;18.43;15.47;;;;;;;;;;5090048;28;20466;-55
2021/08/21 04:45:20;;;;;;;17.20;15.43;;;;;;;;;;5089816;28;20442;-55
2021/08/21 04:47:47;;;;;;;17.43;15.60;;;;;;;;;;5089930;28;20475;-55
2021/08/21 04:50:15;;;;;;;18.93;16.57;;;;;;;;;;5090996;28;20496;-55
2021/08/21 04:52:42;;;;;;;17.87;14.93;;;;;;;;;;5090171;28;20851;-54
2021/08/21 04:55:10;;;;;;;17.40;15.70;;;;;;;;;;5089715;28;20879;-55
2021/08/21 04:57:37;;;;;;;17.33;15.50;;;;;;;;;;5089918;28;20439;-55
2021/08/21 05:00:07;;;;;;;16.90;15.10;;;;;;;;;;5090049;28;20442;-55
2021/08/21 05:02:34;;;;;;;16.17;14.47;;;;;;;;;;5089807;28;20867;-55
2021/08/21 05:05:01;;;;;;;18.97;15.50;;;;;;;;;;5089712;28;20500;-55
2021/08/21 05:07:28;;;;;;;19.90;16.10;;;;;;;;;;5089453;28;20482;-56
2021/08/21 05:09:56;;;;;;;17.43;15.27;;;;;;;;;;5089862;28;20794;-55
2021/08/21 05:12:23;;;;;;;18.47;16.33;;;;;;;;;;5089367;28;20446;-55
2021/08/21 05:14:50;;;;;;;17.50;15.70;;;;;;;;;;5089500;28;20516;-54
2021/08/21 05:17:19;;;;;;;18.97;17.17;;;;;;;;;;5089207;28;20495;-55
2021/08/21 05:19:50;;;;;;;22.23;16.97;;;;;;;;;;5076058;28;20795;-56
2021/08/21 05:22:25;;;;;;;20.20;17.17;;;;;;;;;;5076073;28;20436;-53
2021/08/21 05:24:52;;;;;;;19.73;17.67;;;;;;;;;;5075628;28;20533;-55
2021/08/21 05:27:20;;;;;;;18.97;17.07;;;;;;;;;;5075860;28;20885;-55
2021/08/21 05:29:48;;;;;;;18.17;16.33;;;;;;;;;;5075832;28;21005;-55
2021/08/21 05:32:15;;;;;;;19.40;17.33;;;;;;;;;;5075685;28;20497;-55
2021/08/21 05:34:44;;;;;;;19.57;17.47;;;;;;;;;;5075752;28;20896;-55
2021/08/21 05:37:11;;;;;;;18.80;16.83;;;;;;;;;;5076276;28;20440;-55
2021/08/21 05:39:38;;;;;;;17.10;15.30;;;;;;;;;;5075595;28;20447;-55
2021/08/21 05:42:06;;;;;;;19.93;17.03;;;;;;;;;;5075827;28;20443;-54
2021/08/21 05:44:34;;;;;;;20.77;18.57;;;;;;;;;;5079467;28;20466;-56
2021/08/21 05:47:01;;;;;;;18.40;16.60;;;;;;;;;;5078743;28;20475;-55
2021/08/21 05:49:28;;;;;;;19.73;17.70;;;;;;;;;;5076315;28;20447;-56
2021/08/21 05:51:57;;;;;;;20.20;18.03;;;;;;;;;;5076102;28;20438;-55
2021/08/21 05:54:24;;;;;;;18.50;16.50;;;;;;;;;;5075954;28;20463;-55
2021/08/21 05:56:51;;;;;;;19.53;17.17;;;;;;;;;;5077138;28;20438;-55
2021/08/21 05:59:18;;;;;;;19.37;17.40;;;;;;;;;;5075983;28;20512;-56
2021/08/21 06:01:46;;;;;;;18.80;16.80;;;;;;;;;;5076204;28;20504;-56
2021/08/21 06:04:13;;;;;;;17.40;15.70;;;;;;;;;;5075529;28;20519;-56
2021/08/21 06:06:40;;;;;;;18.90;16.97;;;;;;;;;;5075153;28;20947;-56
2021/08/21 06:09:09;;;;;;;18.47;16.13;;;;;;;;;;5075056;28;20443;-56
2021/08/21 06:11:36;;;;;;;17.50;15.70;;;;;;;;;;5075335;28;20508;-55
2021/08/21 06:14:03;;;;;;;18.73;16.83;;;;;;;;;;5075284;28;20467;-56
2021/08/21 06:16:30;;;;;;;17.63;15.83;;;;;;;;;;5075174;28;20517;-55
2021/08/21 06:18:58;;;;;;;18.90;16.67;;;;;;;;;;5075776;28;20443;-56
2021/08/21 06:21:25;;;;;;;18.93;17.13;;;;;;;;;;5075065;28;21068;-56
2021/08/21 06:23:52;;;;;;;17.90;16.00;;;;;;;;;;5075577;28;20463;-57
2021/08/21 06:26:21;;;;;;;19.60;17.03;;;;;;;;;;5075826;28;20861;-56
2021/08/21 06:28:48;;;;;;;16.80;15.20;;;;;;;;;;5075153;28;20512;-56
2021/08/21 06:31:15;;;;;;;18.77;16.90;;;;;;;;;;5073770;28;20489;-56
2021/08/21 06:33:42;;;;;;;18.57;16.60;;;;;;;;;;5093874;22;20459;-59
2021/08/21 06:36:10;;;;;;;17.60;15.80;;;;;;;;;;5035318;28;20421;-60
2021/08/21 06:38:37;;;;;;;18.40;16.37;;;;;;;;;;5034863;28;20433;-59
2021/08/21 06:41:04;;;;;;;18.00;16.30;;;;;;;;;;5035260;28;20437;-64
2021/08/21 06:43:33;;;;;;;17.70;16.00;;;;;;;;;;5035242;28;20933;-60
2021/08/21 06:46:00;;;;;;;16.83;15.13;;;;;;;;;;5035770;28;20442;-60
2021/08/21 06:48:29;;;;;;;16.30;14.70;;;;;;;;;;5034652;28;20530;-60
2021/08/21 06:50:56;;;;;;;19.23;17.27;;;;;;;;;;5034606;28;20518;-60
2021/08/21 06:53:25;;;;;;;19.10;17.20;;;;;;;;;;5034363;28;20499;-60
2021/08/21 06:55:52;;;;;;;18.57;16.67;;;;;;;;;;5034364;28;20536;-60
2021/08/21 06:58:20;;;;;;;19.53;17.63;;;;;;;;;;5033943;28;20998;-60
2021/08/21 07:00:49;;;;;;;19.17;17.27;;;;;;;;;;5033887;28;20545;-59
2021/08/21 07:03:16;;;;;;;20.97;17.97;;;;;;;;;;5033752;28;20971;-59
2021/08/21 07:05:43;;;;;;;19.27;17.30;;;;;;;;;;5035324;28;20523;-59
2021/08/21 07:08:10;;;;;;;18.67;16.90;;;;;;;;;;5035043;28;20476;-59
2021/08/21 07:10:38;;;;;;;19.70;17.70;;;;;;;;;;5035232;28;20499;-59
2021/08/21 07:13:05;;;;;;;19.57;17.63;;;;;;;;;;5033697;28;20445;-60
2021/08/21 07:15:33;;;;;;;18.90;17.10;;;;;;;;;;5034023;28;20560;-59
2021/08/21 07:18:01;;;;;;;20.80;18.67;;;;;;;;;;5033790;28;20848;-60
2021/08/21 07:20:28;;;;;;;20.50;18.40;;;;;;;;;;5033905;28;20449;-60
2021/08/21 07:22:56;;;;;;;19.07;17.23;;;;;;;;;;5033856;28;20519;-59
2021/08/21 07:25:23;;;;;;;22.47;19.37;;;;;;;;;;5033485;28;20523;-59
2021/08/21 07:27:50;;;;;;;20.80;18.80;;;;;;;;;;5033360;28;20488;-59
2021/08/21 07:30:17;;;;;;;21.33;19.07;;;;;;;;;;5033859;28;20499;-60
2021/08/21 07:32:45;;;;;;;20.93;18.50;;;;;;;;;;5033474;28;20446;-59
2021/08/21 07:35:13;;;;;;;21.93;19.20;;;;;;;;;;5033029;28;20512;-59
2021/08/21 07:37:41;;;;;;;21.87;19.73;;;;;;;;;;5033479;28;20863;-60
2021/08/21 07:40:09;;;;;;;22.50;20.30;;;;;;;;;;5033318;28;20458;-60
2021/08/21 07:42:36;;;;;;;20.97;18.53;;;;;;;;;;5032829;28;20461;-60
2021/08/21 07:45:04;;;;;;;21.63;19.53;;;;;;;;;;5032913;28;20462;-60
2021/08/21 07:47:31;;;;;;;20.97;18.77;;;;;;;;;;5033363;28;20490;-60
2021/08/21 07:49:58;;;;;;;23.70;21.30;;;;;;;;;;5033413;28;20457;-60
2021/08/21 07:52:27;;;;;;;22.97;20.57;;;;;;;;;;5033130;28;20445;-59
2021/08/21 07:54:56;;;;;;;22.17;19.60;;;;;;;;;;5033516;28;20935;-60
2021/08/21 07:57:24;;;;;;;22.40;20.10;;;;;;;;;;5033198;28;20553;-60
2021/08/21 07:59:51;;;;;;;24.27;21.87;;;;;;;;;;5033265;28;20448;-60
2021/08/21 08:02:18;;;;;;;25.37;22.87;;;;;;;;;;5033155;28;20477;-59
2021/08/21 08:04:45;;;;;;;22.60;20.37;;;;;;;;;;5032584;28;20480;-59
2021/08/21 08:07:13;;;;;;;23.73;21.30;;;;;;;;;;5033062;28;20449;-60
2021/08/21 08:09:41;;;;;;;24.20;21.60;;;;;;;;;;5033180;28;20442;-60
2021/08/21 08:12:09;;;;;;;25.63;23.13;;;;;;;;;;5032811;28;20450;-59
2021/08/21 08:14:36;;;;;;;21.93;19.63;;;;;;;;;;5032856;28;20527;-60
2021/08/21 08:17:03;;;;;;;23.17;20.73;;;;;;;;;;5032902;28;20442;-60
2021/08/21 08:19:30;;;;;;;20.73;18.83;;;;;;;;;;5033926;28;20456;-59
2021/08/21 08:21:58;;;;;;;22.80;20.60;;;;;;;;;;5032876;28;20486;-60
2021/08/21 08:24:25;;;;;;;22.77;20.47;;;;;;;;;;5032978;28;20534;-60
2021/08/21 08:26:54;;;;;;;21.17;19.23;;;;;;;;;;5033111;28;20441;-60
2021/08/21 08:29:21;;;;;;;22.80;20.50;;;;;;;;;;5032762;28;20479;-60
2021/08/21 08:31:48;;;;;;;23.70;21.30;;;;;;;;;;5032816;28;20448;-59
2021/08/21 08:34:16;;;;;;;23.10;20.90;;;;;;;;;;5032541;28;20481;-60
2021/08/21 08:36:43;;;;;;;20.83;18.73;;;;;;;;;;5032758;28;20452;-59
2021/08/21 08:39:10;;;;;;;21.50;19.43;;;;;;;;;;5032325;28;20494;-60
2021/08/21 08:41:37;;;;;;;22.23;19.83;;;;;;;;;;5032666;28;20456;-60
2021/08/21 08:44:10;;;;;;;23.80;21.43;;;;;;;;;;5032772;28;20514;-59
2021/08/21 08:46:38;;;;;;;24.67;22.40;;;;;;;;;;5032796;28;20894;-60
2021/08/21 08:49:05;;;;;;;23.73;21.53;;;;;;;;;;5032665;28;20484;-59
2021/08/21 08:51:33;;;;;;;22.83;20.83;;;;;;;;;;5032340;28;20889;-60
2021/08/21 08:54:01;;;;;;;21.27;19.10;;;;;;;;;;5034033;28;20883;-60
2021/08/21 08:56:28;;;;;;;21.53;19.47;;;;;;;;;;5035550;28;20460;-58
2021/08/21 08:58:55;;;;;;;22.27;20.07;;;;;;;;;;5036929;28;20502;-60
2021/08/21 09:01:24;;;;;;;20.77;18.77;;;;;;;;;;5036404;28;20463;-60
2021/08/21 09:03:51;;;;;;;19.10;17.40;;;;;;;;;;5036853;28;20516;-58
2021/08/21 09:06:34;;;;;;;20.57;18.57;;;;;;;;;;5036644;28;20466;-59
2021/08/21 09:09:10;;;;;;;22.77;20.67;;;;;;;;;;5036287;28;20466;-59
2021/08/21 09:11:41;;;;;;;21.97;19.93;;;;;;;;;;5036247;28;20439;-58
2021/08/21 09:14:18;;;;;;;24.00;21.70;;;;;;;;;;5035975;28;20540;-59
2021/08/21 09:16:47;;;;;;;22.80;20.60;;;;;;;;;;5036124;28;20442;-59
2021/08/21 09:19:23;;;;;;;21.60;19.67;;;;;;;;;;5036168;28;20449;-60
2021/08/21 09:21:59;;;;;;;23.10;20.90;;;;;;;;;;5035895;28;20434;-59
2021/08/21 09:24:26;;;;;;;22.90;20.70;;;;;;;;;;5036695;28;20820;-59
2021/08/21 09:26:54;;;;;;;23.37;20.07;;;;;;;;;;5036196;28;20797;-58
2021/08/21 09:29:28;;;;;;;22.07;20.07;;;;;;;;;;5036160;28;20555;-58
2021/08/21 09:32:07;;;;;;;23.67;21.47;;;;;;;;;;5036045;28;20450;-60
2021/08/21 09:34:34;;;;;;;23.93;21.73;;;;;;;;;;5035518;28;20565;-60
2021/08/21 09:37:01;;;;;;;22.03;19.93;;;;;;;;;;5035582;28;20502;-59
2021/08/21 09:39:34;;;;;;;21.17;19.17;;;;;;;;;;5035970;28;20451;-60
2021/08/21 09:42:03;;;;;;;21.30;19.20;;;;;;;;;;5035697;28;20533;-59
2021/08/21 09:44:31;;;;;;;21.60;19.57;;;;;;;;;;5035538;28;20463;-59
2021/08/21 09:47:13;;;;;;;20.57;18.77;;;;;;;;;;5035366;28;20465;-59
2021/08/21 09:49:41;;;;;;;19.87;18.07;;;;;;;;;;5035284;28;20506;-59
2021/08/21 09:52:11;;;;;;;22.13;19.97;;;;;;;;;;5034866;28;20513;-59
2021/08/21 09:54:39;;;;;;;18.60;16.90;;;;;;;;;;5035233;28;20529;-59
2021/08/21 09:57:06;;;;;;;16.60;15.17;;;;;;;;;;5034944;28;20532;-59
2021/08/21 09:59:35;;;;;;;15.47;14.07;;;;;;;;;;5035672;28;20447;-59
2021/08/21 10:02:05;;;;;;;16.10;14.63;;;;;;;;;;5035306;28;20475;-59
2021/08/21 10:04:34;;;;;;;17.10;15.63;;;;;;;;;;5035541;28;20523;-59
2021/08/21 10:07:04;;;;;;;17.80;16.10;;;;;;;;;;5035023;28;20448;-59
2021/08/21 10:09:32;;;;;;;18.50;16.80;;;;;;;;;;5035439;28;20548;-60
2021/08/21 10:12:00;;;;;;;15.90;14.50;;;;;;;;;;5035164;28;20453;-60
2021/08/21 10:14:29;;;;;;;16.80;15.40;;;;;;;;;;5035064;28;20901;-60
2021/08/21 10:16:56;;;;;;;17.70;16.00;;;;;;;;;;5034981;28;20449;-60
2021/08/21 10:19:24;;;;;;;17.70;16.10;;;;;;;;;;5034801;28;20439;-59
2021/08/21 10:21:54;;;;;;;18.80;17.10;;;;;;;;;;5034503;28;20869;-60
2021/08/21 10:24:26;;;;;;;17.33;15.73;;;;;;;;;;5034367;28;20457;-58
2021/08/21 10:26:57;;;;;;;16.00;14.53;;;;;;;;;;5034798;28;20540;-60
2021/08/21 10:29:24;;;;;;;14.57;13.27;;;;;;;;;;5034502;28;20472;-60
2021/08/21 10:31:52;;;;;;;17.53;15.83;;;;;;;;;;5035257;28;20457;-57
2021/08/21 10:34:19;;;;;;;14.63;13.40;;;;;;;;;;5034961;28;20852;-59
2021/08/21 10:36:50;;;;;;;14.90;13.40;;;;;;;;;;5034736;28;20500;-57
2021/08/21 10:39:21;;;;;;;14.77;13.43;;;;;;;;;;5035524;28;20426;-60
2021/08/21 10:41:49;;;;;;;15.43;13.97;;;;;;;;;;5035587;28;20492;-59
2021/08/21 10:44:40;;;;;;;14.00;12.60;;;;;;;;;;5034290;28;21040;-60
2021/08/21 10:47:07;;;;;;;13.07;11.93;;;;;;;;;;5035004;28;20521;-59
2021/08/21 10:49:42;;;;;;;13.27;11.97;;;;;;;;;;5034365;28;20483;-59
2021/08/21 10:52:29;;;;;;;13.23;12.03;;;;;;;;;;5034720;28;20551;-59
2021/08/21 10:54:58;;;;;;;13.73;12.53;;;;;;;;;;5035214;28;20545;-60
2021/08/21 10:57:30;;;;;;;14.77;13.47;;;;;;;;;;5035351;28;20452;-59
2021/08/21 10:59:58;;;;;;;13.90;12.70;;;;;;;;;;5034574;28;20444;-59
2021/08/21 11:02:41;;;;;;;13.47;12.27;;;;;;;;;;5035998;28;20484;-58
2021/08/21 11:05:09;;;;;;;13.67;12.37;;;;;;;;;;5035896;28;20998;-59
2021/08/21 11:07:43;;;;;;;14.00;12.60;;;;;;;;;;5036234;28;20505;-59
2021/08/21 11:10:16;;;;;;;12.20;11.20;;;;;;;;;;5036138;28;20490;-58
2021/08/21 11:12:45;;;;;;;11.60;10.50;;;;;;;;;;5035008;28;20445;-58
2021/08/21 11:15:16;;;;;;;13.90;12.70;;;;;;;;;;5034280;28;20469;-60
2021/08/21 11:17:44;;;;;;;12.70;11.50;;;;;;;;;;5033588;28;20456;-59
2021/08/21 11:20:25;;;;;;;15.57;14.20;;;;;;;;;;5034290;28;20445;-58
2021/08/21 11:23:07;;;;;;;15.10;13.80;;;;;;;;;;5034284;28;20447;-59
2021/08/21 11:25:36;;;;;;;13.93;12.63;;;;;;;;;;5033970;28;20478;-59
2021/08/21 11:28:05;;;;;;;13.80;12.47;;;;;;;;;;5034142;28;20440;-59
2021/08/21 11:30:33;;;;;;;14.17;12.77;;;;;;;;;;5033595;28;20481;-59
2021/08/21 11:33:02;;;;;;;11.93;10.93;;;;;;;;;;5033919;28;20794;-58
2021/08/21 11:35:31;;;;;;;12.80;11.70;;;;;;;;;;5033803;28;20476;-59
2021/08/21 11:37:59;;;;;;;13.40;11.00;;;;;;;;;;5034046;28;20502;-60
2021/08/21 11:40:33;;;;;;;12.87;11.53;;;;;;;;;;5033208;28;20828;-60
2021/08/21 11:43:02;;;;;;;12.27;11.07;;;;;;;;;;5034603;28;20429;-59
2021/08/21 11:45:30;;;;;;;13.57;12.30;;;;;;;;;;5037366;28;20472;-59
2021/08/21 11:47:58;;;;;;;12.20;11.20;;;;;;;;;;5045879;28;20959;-59
2021/08/21 11:50:28;;;;;;;11.80;10.70;;;;;;;;;;5046506;28;20486;-60
2021/08/21 11:52:55;;;;;;;12.07;11.00;;;;;;;;;;5045298;28;20521;-58
2021/08/21 11:55:23;;;;;;;12.37;11.13;;;;;;;;;;5039768;28;20492;-58
2021/08/21 11:57:52;;;;;;;11.80;10.60;;;;;;;;;;5035152;28;20443;-58
2021/08/21 12:00:22;;;;;;;10.83;9.93;;;;;;;;;;5033162;28;20493;-59
2021/08/21 12:02:50;;;;;;;12.90;11.80;;;;;;;;;;5033308;28;20447;-58
2021/08/21 12:05:27;;;;;;;13.23;12.00;;;;;;;;;;5032698;28;20477;-59
2021/08/21 12:07:54;;;;;;;12.83;11.63;;;;;;;;;;5032555;28;20459;-59
2021/08/21 12:10:22;;;;;;;12.17;11.07;;;;;;;;;;5032813;28;20552;-60
2021/08/21 12:12:54;;;;;;;11.57;10.47;;;;;;;;;;5032835;28;20446;-59
2021/08/21 12:15:27;;;;;;;11.60;10.60;;;;;;;;;;5033010;28;20475;-59
2021/08/21 12:17:54;;;;;;;11.50;10.50;;;;;;;;;;5032722;28;20468;-59
2021/08/21 12:20:22;;;;;;;10.70;9.80;;;;;;;;;;5032890;28;20446;-60
2021/08/21 12:22:49;;;;;;;11.27;10.17;;;;;;;;;;5033056;28;20457;-59
2021/08/21 12:25:16;;;;;;;12.70;11.60;;;;;;;;;;5032914;28;20478;-59
2021/08/21 12:27:44;;;;;;;11.93;10.93;;;;;;;;;;5033192;28;20451;-59
2021/08/21 12:30:12;;;;;;;11.70;10.50;;;;;;;;;;5036782;28;20533;-59
2021/08/21 12:32:41;;;;;;;11.60;10.50;;;;;;;;;;5037049;28;20443;-59
2021/08/21 12:35:09;;;;;;;11.57;10.67;;;;;;;;;;5036701;28;20899;-60
2021/08/21 12:37:36;;;;;;;11.80;10.80;;;;;;;;;;5036938;28;20448;-59
2021/08/21 12:40:08;;;;;;;11.90;10.90;;;;;;;;;;5037005;28;20506;-61
2021/08/21 12:45:20;;;;;;;11.60;10.50;;;;;;;;;;5035764;28;20463;-56
2021/08/21 12:47:49;;;;;;;11.63;10.53;;;;;;;;;;5036897;28;20494;-57
2021/08/21 12:50:17;;;;;;;11.30;10.40;;;;;;;;;;5036603;28;21011;-56
2021/08/21 12:52:45;;;;;;;12.37;11.07;;;;;;;;;;5037255;28;20444;-58
2021/08/21 12:55:13;;;;;;;13.00;11.73;;;;;;;;;;5036956;28;20445;-57
2021/08/21 12:57:41;;;;;;;13.20;12.00;;;;;;;;;;5035790;28;20448;-54
2021/08/21 13:00:12;;;;;;;12.07;10.87;;;;;;;;;;5036015;28;20882;-55
2021/08/21 13:02:43;;;;;;;12.57;11.57;;;;;;;;;;5037384;28;20463;-56
2021/08/21 13:05:15;;;;;;;12.17;11.13;;;;;;;;;;5036104;28;20474;-55
2021/08/21 13:07:43;;;;;;;11.70;10.60;;;;;;;;;;5036643;28;20800;-56
2021/08/21 13:10:11;;;;;;;13.77;12.47;;;;;;;;;;5036465;28;20483;-56
2021/08/21 13:12:38;;;;;;;12.83;11.80;;;;;;;;;;5036317;28;20537;-59
2021/08/21 13:15:07;;;;;;;12.10;11.00;;;;;;;;;;5036130;28;20869;-58
2021/08/21 13:17:34;;;;;;;11.70;10.70;;;;;;;;;;5036791;28;20451;-58
2021/08/21 13:20:01;;;;;;;14.03;12.73;;;;;;;;;;5035999;28;20873;-57
2021/08/21 13:22:30;;;;;;;12.27;11.27;;;;;;;;;;5039546;28;20498;-56
2021/08/21 13:24:58;;;;;;;12.70;11.60;;;;;;;;;;5036286;28;20478;-57
2021/08/21 13:27:25;;;;;;;11.53;10.57;;;;;;;;;;5036123;28;20452;-56
2021/08/21 13:29:53;;;;;;;11.20;10.23;;;;;;;;;;5035817;28;20483;-56
2021/08/21 13:32:20;;;;;;;12.40;11.40;;;;;;;;;;5036498;28;20448;-56
2021/08/21 13:34:48;;;;;;;11.13;10.23;;;;;;;;;;5037222;28;20536;-56
2021/08/21 13:37:15;;;;;;;12.60;11.40;;;;;;;;;;5037184;28;20458;-56
2021/08/21 13:39:44;;;;;;;12.60;11.50;;;;;;;;;;5035617;28;20506;-55
2021/08/21 13:42:11;;;;;;;11.80;10.90;;;;;;;;;;5036547;28;20456;-57
2021/08/21 13:44:38;;;;;;;11.60;10.67;;;;;;;;;;5036887;28;20480;-58
2021/08/21 13:47:06;;;;;;;10.50;9.50;;;;;;;;;;5036923;28;20877;-56
2021/08/21 13:49:35;;;;;;;9.93;9.03;;;;;;;;;;5036314;28;20995;-57
2021/08/21 13:52:02;;;;;;;10.33;9.43;;;;;;;;;;5036611;28;20448;-56
2021/08/21 13:54:30;;;;;;;10.53;9.53;;;;;;;;;;5036073;28;20470;-57
2021/08/21 13:56:58;;;;;;;11.20;10.30;;;;;;;;;;5037490;28;20476;-57
2021/08/21 13:59:26;;;;;;;10.70;9.73;;;;;;;;;;5034942;28;20452;-57
2021/08/21 14:01:53;;;;;;;11.60;10.70;;;;;;;;;;5035284;28;20445;-57
2021/08/21 14:04:20;;;;;;;10.20;9.20;;;;;;;;;;5035409;28;20466;-57
2021/08/21 14:06:48;;;;;;;11.20;10.20;;;;;;;;;;5035218;28;20476;-57
2021/08/21 14:09:15;;;;;;;10.47;9.60;;;;;;;;;;5034763;28;20503;-57
2021/08/21 14:11:42;;;;;;;11.20;10.30;;;;;;;;;;5035296;28;20499;-54
2021/08/21 14:14:11;;;;;;;9.93;9.17;;;;;;;;;;5035176;28;20548;-56
2021/08/21 14:16:40;;;;;;;12.00;10.80;;;;;;;;;;5034943;28;20440;-57
2021/08/21 14:19:07;;;;;;;9.60;8.80;;;;;;;;;;5034903;28;20526;-55
2021/08/21 14:21:34;;;;;;;11.10;9.77;;;;;;;;;;5034447;28;20852;-56
2021/08/21 14:24:02;;;;;;;11.60;10.60;;;;;;;;;;5034642;28;20558;-58
2021/08/21 14:26:29;;;;;;;10.73;9.83;;;;;;;;;;5034582;28;20494;-56
2021/08/21 14:28:56;;;;;;;10.47;9.60;;;;;;;;;;5034998;28;20490;-57